Time;durP1;ratioP1;P1;durP2;ratioP2;P2;SDS_P1;SDS_P2;PMS_P1;PMS_P2;Temp;Humidity;BMP_temperature;BMP_pressure;BME280_temperature;BME280_humidity;BME280_pressure;Samples;Min_cycle;Max_cycle;Signal;HPM_P1;HPM_P2
2022/04/28 00:02:14;;;;;;;0.98;0.95;;;;;;;8.50;100.00;90898.88;5071944;28;20036;-67
2022/04/28 00:04:39;;;;;;;1.55;1.45;;;;;;;8.36;100.00;90896.25;5071841;28;20039;-67
2022/04/28 00:07:05;;;;;;;1.20;1.20;;;;;;;8.22;100.00;90896.25;5071857;28;20474;-67
2022/04/28 00:09:31;;;;;;;2.00;1.90;;;;;;;8.11;100.00;90892.19;5071572;28;20555;-68
2022/04/28 00:11:56;;;;;;;1.25;1.15;;;;;;;8.00;100.00;90888.16;5071766;28;20043;-67
2022/04/28 00:14:22;;;;;;;2.47;1.30;;;;;;;7.99;100.00;90892.69;5071655;28;20147;-67
2022/04/28 00:16:47;;;;;;;1.35;1.35;;;;;;;7.96;100.00;90887.19;5071752;28;20076;-67
2022/04/28 00:19:13;;;;;;;1.13;1.13;;;;;;;7.90;100.00;90883.84;5071508;28;20042;-67
2022/04/28 00:21:38;;;;;;;0.80;0.80;;;;;;;7.94;100.00;90906.03;5071886;28;20037;-67
2022/04/28 00:24:04;;;;;;;1.83;1.73;;;;;;;8.00;100.00;90896.91;5071649;28;20028;-70
2022/04/28 00:26:30;;;;;;;2.42;1.83;;;;;;;8.07;100.00;90904.47;5071682;28;20032;-67
2022/04/28 00:28:55;;;;;;;1.70;1.60;;;;;;;8.21;100.00;90904.50;5071414;28;20040;-67
2022/04/28 00:31:21;;;;;;;2.58;2.38;;;;;;;8.39;100.00;90909.72;5053515;28;20103;-67
2022/04/28 00:33:48;;;;;;;0.90;0.90;;;;;;;8.51;100.00;90909.19;5071554;28;20431;-67
2022/04/28 00:36:17;;;;;;;1.90;1.80;;;;;;;8.40;100.00;90892.72;5071355;28;20041;-67
2022/04/28 00:38:42;;;;;;;0.98;0.98;;;;;;;8.34;100.00;90898.41;5053561;28;20033;-67
2022/04/28 00:41:08;;;;;;;1.10;1.10;;;;;;;8.33;100.00;90886.22;5071357;28;20063;-68
2022/04/28 00:43:51;;;;;;;1.00;1.00;;;;;;;8.20;100.00;90889.63;5071314;28;20040;-67
2022/04/28 00:46:17;;;;;;;1.67;1.57;;;;;;;8.10;100.00;90895.94;5071641;28;20036;-67
2022/04/28 00:51:28;;;;;;;0.90;0.90;;;;;;;8.02;100.00;90892.09;5071626;28;20535;-67
2022/04/28 00:53:54;;;;;;;0.90;0.90;;;;;;;7.97;100.00;90894.06;5071296;28;20574;-67
2022/04/28 00:56:20;;;;;;;0.98;0.98;;;;;;;7.90;100.00;90894.44;5071245;28;20037;-66
2022/04/28 00:58:48;;;;;;;1.75;1.65;;;;;;;7.92;100.00;90894.94;5071328;28;20037;-66
2022/04/28 01:01:13;;;;;;;1.80;1.73;;;;;;;7.97;100.00;90894.84;5071157;28;20421;-67
2022/04/28 01:03:39;;;;;;;0.90;0.90;;;;;;;7.96;100.00;90889.84;5079853;28;20043;-67
2022/04/28 01:06:04;;;;;;;1.27;1.20;;;;;;;7.91;100.00;90890.72;5078916;28;20558;-66
2022/04/28 01:08:30;;;;;;;1.20;1.20;;;;;;;7.90;100.00;90891.81;5071269;28;20071;-66
2022/04/28 01:10:56;;;;;;;1.25;1.17;;;;;;;7.90;100.00;90883.06;5073305;28;20063;-66
2022/04/28 01:13:22;;;;;;;1.42;1.33;;;;;;;7.95;100.00;90885.63;5077806;28;20028;-66
2022/04/28 01:15:49;;;;;;;1.00;1.00;;;;;;;7.96;100.00;90890.63;5077514;28;20036;-67
2022/04/28 01:18:16;;;;;;;2.60;1.60;;;;;;;7.91;100.00;90882.78;5077647;28;20036;-66
2022/04/28 01:20:42;;;;;;;1.65;1.55;;;;;;;7.98;100.00;90882.38;5077496;28;20521;-67
2022/04/28 01:23:08;;;;;;;1.30;1.30;;;;;;;8.09;100.00;90887.22;5077642;28;20499;-66
2022/04/28 01:25:34;;;;;;;1.05;1.05;;;;;;;8.17;100.00;90890.22;5077578;28;20091;-66
2022/04/28 01:28:00;;;;;;;1.27;1.17;;;;;;;8.22;100.00;90884.84;5077663;28;20533;-66
2022/04/28 01:30:26;;;;;;;1.20;1.20;;;;;;;8.21;100.00;90891.25;5077554;28;20047;-66
2022/04/28 01:32:53;;;;;;;1.58;1.48;;;;;;;8.15;100.00;90884.44;5077565;28;20608;-67
2022/04/28 01:35:19;;;;;;;1.00;1.00;;;;;;;8.10;100.00;90895.94;5077492;28;20551;-67
2022/04/28 01:37:44;;;;;;;0.98;0.98;;;;;;;8.15;100.00;90889.75;5077555;28;20071;-67
2022/04/28 01:40:13;;;;;;;1.25;1.15;;;;;;;8.26;100.00;90891.91;5077456;28;20494;-66
2022/04/28 01:42:40;;;;;;;1.80;1.50;;;;;;;8.38;100.00;90891.47;5077291;28;20068;-67
2022/04/28 01:45:07;;;;;;;1.17;1.17;;;;;;;8.34;100.00;90872.69;5077467;28;20029;-67
2022/04/28 01:47:33;;;;;;;1.55;1.45;;;;;;;8.48;100.00;90888.59;5077381;28;20037;-67
2022/04/28 01:49:59;;;;;;;1.10;1.10;;;;;;;8.37;100.00;90882.72;5077449;28;20047;-67
2022/04/28 01:55:09;;;;;;;0.95;0.95;;;;;;;8.23;100.00;90886.44;5077497;28;20079;-67
2022/04/28 01:57:34;;;;;;;1.08;1.08;;;;;;;8.14;100.00;90898.78;5077362;28;20072;-67
2022/04/28 02:00:00;;;;;;;1.40;1.30;;;;;;;8.02;100.00;90900.03;5077299;28;20044;-67
2022/04/28 02:02:26;;;;;;;0.85;0.85;;;;;;;7.88;100.00;90901.88;5077263;28;20029;-67
2022/04/28 02:04:58;;;;;;;1.10;1.10;;;;;;;7.65;100.00;90887.72;5077244;28;20037;-67
2022/04/28 02:07:24;;;;;;;1.20;1.10;;;;;;;7.56;100.00;90896.63;5077307;28;20033;-67
2022/04/28 02:09:49;;;;;;;1.58;1.48;;;;;;;7.47;100.00;90905.25;5077034;28;20049;-67
2022/04/28 02:12:15;;;;;;;1.00;1.00;;;;;;;7.47;100.00;90899.94;5077324;28;20044;-67
2022/04/28 02:14:41;;;;;;;1.92;1.75;;;;;;;7.45;100.00;90896.03;5077095;28;20410;-67
2022/04/28 02:17:07;;;;;;;0.85;0.85;;;;;;;7.33;100.00;90901.75;5077155;28;20443;-67
2022/04/28 02:19:32;;;;;;;0.90;0.90;;;;;;;7.30;100.00;90906.84;5076885;28;20040;-67
2022/04/28 02:21:58;;;;;;;1.20;1.20;;;;;;;7.28;100.00;90899.22;5075637;28;20036;-67
2022/04/28 02:24:24;;;;;;;1.08;1.08;;;;;;;7.36;100.00;90908.34;5073437;28;20532;-67
2022/04/28 02:26:49;;;;;;;1.38;1.23;;;;;;;7.40;100.00;90911.97;5073922;28;20040;-67
2022/04/28 02:29:15;;;;;;;0.95;0.95;;;;;;;7.40;100.00;90912.75;5073688;28;20036;-67
2022/04/28 02:31:41;;;;;;;3.75;1.75;;;;;;;7.39;100.00;90900.59;5073886;28;20048;-67
2022/04/28 02:34:06;;;;;;;2.50;2.30;;;;;;;7.38;100.00;90901.66;5073789;28;20062;-67
2022/04/28 02:36:32;;;;;;;1.77;1.67;;;;;;;7.37;100.00;90907.25;5073595;28;20036;-67
2022/04/28 02:38:57;;;;;;;3.60;1.92;;;;;;;7.32;100.00;90899.41;5073603;28;20513;-67
2022/04/28 02:41:23;;;;;;;1.58;1.48;;;;;;;7.29;100.00;90900.78;5073679;28;20036;-67
2022/04/28 02:43:49;;;;;;;0.85;0.85;;;;;;;7.19;100.00;90901.72;5073681;28;20047;-67
2022/04/28 02:46:15;;;;;;;1.17;1.17;;;;;;;7.16;100.00;90898.88;5073872;28;20115;-67
2022/04/28 02:48:40;;;;;;;1.23;1.20;;;;;;;7.16;100.00;90901.50;5073490;28;20079;-67
2022/04/28 02:51:06;;;;;;;1.40;1.33;;;;;;;7.20;100.00;90902.50;5073496;28;20482;-67
2022/04/28 02:53:32;;;;;;;1.00;1.00;;;;;;;7.22;100.00;90911.72;5073417;28;20043;-67
2022/04/28 02:55:58;;;;;;;1.30;1.30;;;;;;;7.29;100.00;90916.66;5073223;28;20025;-67
2022/04/28 02:58:23;;;;;;;1.30;1.20;;;;;;;7.29;100.00;90921.94;5073359;28;20819;-67
2022/04/28 03:00:49;;;;;;;1.42;1.33;;;;;;;7.34;100.00;90929.00;5073198;28;20115;-67
2022/04/28 03:03:14;;;;;;;2.28;2.17;;;;;;;7.31;100.00;90919.78;5073249;28;20037;-67
2022/04/28 03:11:09;;;;;;;1.00;1.00;;;;;;;7.24;100.00;90924.66;4974274;28;20089;-64
2022/04/28 03:13:35;;;;;;;1.95;1.85;;;;;;;7.25;100.00;90928.06;4974292;28;20046;-64
2022/04/28 03:16:01;;;;;;;1.20;1.20;;;;;;;7.28;100.00;90923.03;4974152;28;20050;-64
2022/04/28 03:18:27;;;;;;;1.15;1.15;;;;;;;7.31;100.00;90934.88;4974080;28;20026;-64
2022/04/28 03:20:53;;;;;;;1.30;1.20;;;;;;;7.36;100.00;90937.44;4974256;28;20062;-64
2022/04/28 03:23:19;;;;;;;1.20;1.20;;;;;;;7.36;100.00;90938.22;4974083;28;20043;-64
2022/04/28 03:25:44;;;;;;;1.83;1.40;;;;;;;7.38;100.00;90943.22;4974187;28;20106;-64
2022/04/28 03:28:10;;;;;;;6.40;2.28;;;;;;;7.46;100.00;90945.22;4973866;28;20477;-65
2022/04/28 03:30:35;;;;;;;1.77;1.67;;;;;;;7.47;100.00;90947.59;4973987;28;20106;-64
2022/04/28 03:33:01;;;;;;;0.80;0.80;;;;;;;7.50;100.00;90947.00;4974019;28;20031;-64
2022/04/28 03:35:27;;;;;;;1.25;1.25;;;;;;;7.55;100.00;90953.28;4973534;28;20035;-64
2022/04/28 03:37:52;;;;;;;1.10;1.10;;;;;;;7.46;100.00;90956.59;4973786;28;20478;-64
2022/04/28 03:40:18;;;;;;;1.05;1.05;;;;;;;7.45;100.00;90965.63;4973976;28;20039;-64
2022/04/28 03:42:44;;;;;;;0.98;0.98;;;;;;;7.48;100.00;90969.56;4974104;28;20451;-64
2022/04/28 03:45:11;;;;;;;0.95;0.95;;;;;;;7.49;100.00;90974.56;4973760;28;20035;-64
2022/04/28 03:47:36;;;;;;;1.67;1.58;;;;;;;7.48;100.00;90969.56;4973721;28;20038;-64
2022/04/28 03:50:06;;;;;;;2.22;1.60;;;;;;;7.36;100.00;90988.50;4973502;28;20111;-64
2022/04/28 03:52:32;;;;;;;0.90;0.90;;;;;;;7.34;100.00;90988.00;4973496;28;20109;-64
2022/04/28 03:54:57;;;;;;;0.90;0.90;;;;;;;7.35;100.00;90988.78;4973469;28;20482;-64
2022/04/28 03:57:23;;;;;;;1.00;1.00;;;;;;;7.29;100.00;90996.03;4973517;28;20033;-64
2022/04/28 03:59:49;;;;;;;1.10;1.10;;;;;;;7.46;100.00;90993.66;4973350;28;20031;-64
2022/04/28 04:02:14;;;;;;;2.83;2.20;;;;;;;7.64;100.00;90985.97;4973319;28;20488;-64
2022/04/28 04:04:40;;;;;;;1.30;1.20;;;;;;;7.84;100.00;90984.88;4973417;28;20026;-64
2022/04/28 04:07:05;;;;;;;1.02;0.98;;;;;;;7.92;100.00;90982.34;4973294;28;20034;-64
2022/04/28 04:09:31;;;;;;;1.00;1.00;;;;;;;8.16;100.00;90990.13;4973000;28;20047;-64
2022/04/28 04:11:56;;;;;;;1.50;1.48;;;;;;;8.37;100.00;90987.97;4972710;28;20481;-63
2022/04/28 04:14:22;;;;;;;1.45;1.35;;;;;;;8.35;100.00;90992.75;4973099;28;20034;-65
2022/04/28 04:16:47;;;;;;;1.33;1.33;;;;;;;8.48;100.00;90993.84;4972926;28;20585;-65
2022/04/28 04:19:14;;;;;;;1.20;1.20;;;;;;;8.82;100.00;90991.59;4973002;28;20037;-66
2022/04/28 04:21:39;;;;;;;1.10;1.00;;;;;;;9.23;100.00;90986.22;4973076;28;20080;-66
2022/04/28 04:24:06;;;;;;;1.42;1.35;;;;;;;9.74;100.00;90982.44;4973055;28;20497;-65
2022/04/28 04:26:31;;;;;;;1.30;1.25;;;;;;;9.91;100.00;90990.50;4972888;28;20412;-65
2022/04/28 04:28:56;;;;;;;2.42;1.98;;;;;;;9.94;100.00;90981.19;4972859;28;20481;-66
2022/04/28 04:34:06;;;;;;;1.85;1.52;;;;;;;9.56;100.00;90986.03;4972887;28;20093;-66
2022/04/28 04:36:31;;;;;;;1.58;1.50;;;;;;;9.63;100.00;90996.25;4972736;28;20459;-66
2022/04/28 04:38:57;;;;;;;1.05;1.05;;;;;;;9.70;100.00;90997.41;4972657;28;20054;-66
2022/04/28 04:41:22;;;;;;;1.50;1.40;;;;;;;9.99;100.00;90980.25;4968826;28;20062;-65
2022/04/28 04:43:48;;;;;;;2.85;1.77;;;;;;;10.14;100.00;90990.53;4972373;28;20030;-66
2022/04/28 04:46:13;;;;;;;2.67;2.38;;;;;;;10.24;100.00;90989.50;4971848;28;20519;-66
2022/04/28 04:48:39;;;;;;;1.48;1.40;;;;;;;10.53;100.00;90991.69;4972302;28;20389;-65
2022/04/28 04:51:04;;;;;;;1.75;1.65;;;;;;;10.37;100.00;90989.41;4971927;28;20117;-65
2022/04/28 04:53:30;;;;;;;5.50;4.57;;;;;;;10.53;100.00;90997.78;4972372;28;20023;-67
2022/04/28 04:55:55;;;;;;;2.03;1.92;;;;;;;10.48;100.00;90995.28;4972209;28;20027;-64
2022/04/28 04:58:21;;;;;;;1.00;1.00;;;;;;;10.55;100.00;90994.81;4972301;28;20037;-64
2022/04/28 05:00:46;;;;;;;1.75;1.65;;;;;;;10.68;100.00;90993.94;4972241;28;20173;-64
2022/04/28 05:03:13;;;;;;;2.08;1.98;;;;;;;10.84;100.00;90994.31;4972281;28;20031;-64
2022/04/28 05:05:39;;;;;;;2.10;2.00;;;;;;;10.91;100.00;90998.13;4972240;28;20034;-64
2022/04/28 05:08:04;;;;;;;0.98;0.98;;;;;;;10.88;100.00;91004.03;4971710;28;20035;-64
2022/04/28 05:10:30;;;;;;;1.60;1.50;;;;;;;11.12;100.00;90997.53;4971898;28;20535;-65
2022/04/28 05:12:56;;;;;;;1.65;1.55;;;;;;;11.28;100.00;90996.78;4972272;28;20027;-65
2022/04/28 05:15:22;;;;;;;3.08;1.80;;;;;;;11.29;100.00;90997.56;4970623;28;20027;-65
2022/04/28 05:17:47;;;;;;;1.80;1.70;;;;;;;11.38;100.00;91007.16;4972068;28;20488;-65
2022/04/28 05:20:13;;;;;;;1.65;1.55;;;;;;;11.64;100.00;90999.19;4971903;28;20034;-65
2022/04/28 05:22:39;;;;;;;2.50;2.30;;;;;;;11.66;100.00;91012.19;4971451;28;20058;-65
2022/04/28 05:25:05;;;;;;;1.50;1.42;;;;;;;11.54;100.00;91004.84;4971766;28;20043;-65
2022/04/28 05:27:30;;;;;;;1.92;1.83;;;;;;;11.70;100.00;90997.94;4971826;28;20039;-65
2022/04/28 05:29:56;;;;;;;1.60;1.50;;;;;;;11.83;100.00;91006.91;4971835;28;20500;-65
2022/04/28 05:32:21;;;;;;;3.50;3.05;;;;;;;11.92;100.00;91013.03;4971871;28;20523;-66
2022/04/28 05:34:47;;;;;;;58.78;38.90;;;;;;;11.95;100.00;91012.38;4971774;28;20031;-66
2022/04/28 05:37:13;;;;;;;2.70;2.50;;;;;;;11.73;100.00;91014.41;4971467;28;20093;-65
2022/04/28 05:39:40;;;;;;;1.60;1.50;;;;;;;11.75;100.00;91022.88;4971697;28;20113;-65
2022/04/28 05:42:07;;;;;;;1.63;1.52;;;;;;;12.06;100.00;91026.19;4971609;28;20030;-65
2022/04/28 05:47:18;;;;;;;1.92;1.83;;;;;;;12.57;100.00;91019.22;4971582;28;20034;-65
2022/04/28 05:49:43;;;;;;;3.97;3.47;;;;;;;12.59;100.00;91017.78;4971521;28;20043;-65
2022/04/28 05:52:09;;;;;;;3.38;2.65;;;;;;;12.45;100.00;91021.75;4971354;28;20038;-65
2022/04/28 05:54:36;;;;;;;2.47;2.28;;;;;;;12.29;100.00;91022.25;4971663;28;20033;-65
2022/04/28 05:57:02;;;;;;;2.38;2.28;;;;;;;12.18;100.00;91028.22;4972778;28;20027;-65
2022/04/28 05:59:27;;;;;;;9.02;7.28;;;;;;;12.26;100.00;91028.22;4975492;28;20058;-64
2022/04/28 06:01:53;;;;;;;5.97;5.07;;;;;;;12.58;100.00;91021.56;4975445;28;20519;-64
2022/04/28 06:04:18;;;;;;;3.10;2.88;;;;;;;12.72;100.00;91029.38;4975454;28;20026;-64
2022/04/28 06:06:45;;;;;;;2.33;2.22;;;;;;;12.96;100.00;91030.72;4973420;28;20479;-64
2022/04/28 06:09:10;;;;;;;2.60;2.42;;;;;;;12.94;100.00;91024.91;4974858;28;20047;-65
2022/04/28 06:11:35;;;;;;;6.00;5.25;;;;;;;13.17;100.00;91021.69;4973994;28;20023;-65
2022/04/28 06:14:01;;;;;;;18.23;12.68;;;;;;;12.95;100.00;91029.16;4975169;28;20086;-65
2022/04/28 06:16:26;;;;;;;3.22;3.03;;;;;;;13.02;100.00;91024.09;4974997;28;20062;-65
2022/04/28 06:18:52;;;;;;;4.78;3.42;;;;;;;13.15;100.00;91033.78;4974901;28;20030;-65
2022/04/28 06:21:17;;;;;;;10.88;2.50;;;;;;;12.85;100.00;91024.94;4974696;28;20022;-69
2022/04/28 06:23:45;;;;;;;2.63;2.42;;;;;;;12.58;100.00;91031.44;4974985;28;20077;-65
2022/04/28 06:26:10;;;;;;;3.83;3.40;;;;;;;12.43;100.00;91029.28;4974922;28;20026;-66
2022/04/28 06:28:36;;;;;;;3.13;2.75;;;;;;;12.10;100.00;91027.13;4974704;28;20037;-64
2022/04/28 06:31:01;;;;;;;2.33;2.22;;;;;;;12.14;100.00;91037.94;4973660;28;20038;-65
2022/04/28 06:33:27;;;;;;;3.13;2.83;;;;;;;12.15;100.00;91042.19;4974798;28;20448;-65
2022/04/28 06:35:52;;;;;;;3.70;2.15;;;;;;;12.03;100.00;91039.38;4974205;28;20054;-65
2022/04/28 06:38:17;;;;;;;2.38;2.17;;;;;;;12.19;100.00;91027.91;4974403;28;20065;-65
2022/04/28 06:40:43;;;;;;;1.98;1.88;;;;;;;12.41;100.00;91031.50;4973584;28;20026;-66
2022/04/28 06:43:08;;;;;;;8.30;5.78;;;;;;;12.51;100.00;91026.63;4972960;28;20088;-65
2022/04/28 06:45:34;;;;;;;4.15;3.53;;;;;;;12.59;100.00;91043.69;4973461;28;20504;-65
2022/04/28 06:48:01;;;;;;;2.97;2.55;;;;;;;12.58;100.00;91036.78;4973202;28;20030;-65
2022/04/28 06:50:26;;;;;;;11.77;8.05;;;;;;;12.55;100.00;91034.75;4972530;28;20019;-65
2022/04/28 06:52:52;;;;;;;2.38;2.15;;;;;;;12.50;100.00;91030.38;4973948;28;20038;-65
2022/04/28 06:55:18;;;;;;;4.15;2.92;;;;;;;12.78;100.00;91036.13;4972710;28;20119;-66
2022/04/28 06:57:43;;;;;;;3.10;2.75;;;;;;;12.64;100.00;91040.88;4961695;28;20508;-66
2022/04/28 07:00:09;;;;;;;2.35;2.13;;;;;;;12.78;100.00;91036.13;4973883;28;20027;-65
2022/04/28 07:02:35;;;;;;;3.30;3.03;;;;;;;13.19;100.00;91040.09;4972742;28;20038;-66
2022/04/28 07:05:01;;;;;;;2.88;2.38;;;;;;;13.85;100.00;91045.69;4972495;28;20058;-65
2022/04/28 07:07:26;;;;;;;3.15;2.80;;;;;;;13.87;100.00;91043.47;4974109;28;20439;-65
2022/04/28 07:09:52;;;;;;;11.02;7.10;;;;;;;14.12;100.00;91040.94;4960441;28;20047;-65
2022/04/28 07:12:17;;;;;;;10.40;3.38;;;;;;;14.15;100.00;91041.06;4954861;29;20055;-66
2022/04/28 07:14:46;;;;;;;1.98;1.70;;;;;;;14.23;100.00;91034.09;4954762;29;20097;-65
2022/04/28 07:17:11;;;;;;;2.88;2.65;;;;;;;14.22;100.00;91043.22;4954790;29;20031;-65
2022/04/28 07:19:37;;;;;;;1.77;1.67;;;;;;;14.22;100.00;91037.88;4954249;29;20067;-65
2022/04/28 07:22:05;;;;;;;2.17;2.03;;;;;;;14.25;100.00;91038.00;4954683;29;20109;-64
2022/04/28 07:24:32;;;;;;;2.92;2.72;;;;;;;14.38;100.00;91036.94;4954600;29;20031;-65
2022/04/28 07:26:58;;;;;;;3.40;3.10;;;;;;;14.26;100.00;91036.09;4954675;29;20058;-65
2022/04/28 07:29:23;;;;;;;5.35;4.85;;;;;;;14.37;100.00;91035.38;4954374;29;20478;-65
2022/04/28 07:31:49;;;;;;;11.48;4.70;;;;;;;14.43;100.00;91045.88;4952868;29;20035;-65
2022/04/28 07:34:14;;;;;;;1.95;1.85;;;;;;;14.55;100.00;91035.25;4953390;29;20035;-65
2022/04/28 07:36:40;;;;;;;2.40;2.20;;;;;;;14.81;100.00;91043.00;4953468;29;20464;-65
2022/04/28 07:39:08;;;;;;;1.67;1.58;;;;;;;14.76;100.00;91038.66;4954208;29;20035;-66
2022/04/28 07:41:33;;;;;;;2.90;2.65;;;;;;;14.76;100.00;91041.34;4954374;29;20086;-65
2022/04/28 07:43:59;;;;;;;1.65;1.55;;;;;;;14.84;100.00;91043.16;4954113;29;20035;-65
2022/04/28 07:46:24;;;;;;;1.95;1.85;;;;;;;14.99;100.00;91044.41;4952361;29;20035;-65
2022/04/28 07:48:50;;;;;;;2.25;2.05;;;;;;;14.99;100.00;91041.75;4952829;29;20355;-64
2022/04/28 07:51:15;;;;;;;2.15;1.83;;;;;;;14.75;100.00;91045.13;4951206;29;20094;-65
2022/04/28 07:53:41;;;;;;;2.97;2.30;;;;;;;14.89;100.00;91042.16;4952232;29;20027;-66
2022/04/28 07:56:17;;;;;;;3.05;1.65;;;;;;;14.72;100.00;91045.78;4953093;29;20421;-65
2022/04/28 07:58:43;;;;;;;2.50;2.20;;;;;;;14.29;100.00;91046.16;4952450;29;20027;-65
2022/04/28 08:01:10;;;;;;;2.30;2.10;;;;;;;14.14;100.00;91054.78;4954105;29;20031;-65
2022/04/28 08:03:36;;;;;;;2.30;2.10;;;;;;;14.04;100.00;91067.44;4954222;29;20043;-65
2022/04/28 08:06:01;;;;;;;2.75;1.65;;;;;;;13.56;100.00;91057.19;4953512;29;20027;-65
2022/04/28 08:08:28;;;;;;;1.17;1.17;;;;;;;13.37;100.00;91056.81;4954383;28;20055;-65
2022/04/28 08:10:53;;;;;;;2.17;1.98;;;;;;;13.63;100.00;91064.72;4966918;28;20034;-66
2022/04/28 08:13:19;;;;;;;2.72;2.30;;;;;;;13.47;100.00;91051.91;4958123;28;20481;-66
2022/04/28 08:15:45;;;;;;;3.53;2.05;;;;;;;13.18;100.00;91057.22;4953130;29;20038;-67
2022/04/28 08:18:10;;;;;;;3.00;2.22;;;;;;;13.14;100.00;91067.72;4953621;29;20058;-65
2022/04/28 08:20:39;;;;;;;4.78;3.17;;;;;;;13.38;100.00;91071.75;4951363;28;20528;-66
2022/04/28 08:23:05;;;;;;;3.92;3.38;;;;;;;13.58;100.00;91068.34;4952825;29;20490;-67
2022/04/28 08:25:30;;;;;;;2.80;2.60;;;;;;;13.79;100.00;91079.09;4953370;29;20038;-66
2022/04/28 08:27:55;;;;;;;1.90;1.80;;;;;;;13.69;100.00;91071.41;4952693;29;20039;-65
2022/04/28 08:30:21;;;;;;;3.75;3.45;;;;;;;13.78;100.00;91083.66;4952691;29;20019;-64
2022/04/28 08:32:46;;;;;;;2.13;1.77;;;;;;;14.36;100.00;91065.94;4953218;29;20489;-65
2022/04/28 08:35:12;;;;;;;4.18;3.33;;;;;;;14.49;100.00;91072.13;4952380;29;20529;-65
2022/04/28 08:37:39;;;;;;;3.03;2.10;;;;;;;14.81;100.00;91072.47;4952711;29;20031;-65
2022/04/28 08:40:05;;;;;;;2.67;2.47;;;;;;;15.20;100.00;91073.81;4952886;29;20102;-65
2022/04/28 08:42:32;;;;;;;3.15;2.88;;;;;;;15.03;100.00;91077.47;4953102;29;20039;-65
2022/04/28 08:45:00;;;;;;;2.78;2.58;;;;;;;14.76;100.00;91073.47;4953167;29;20035;-65
2022/04/28 08:47:25;;;;;;;2.65;2.45;;;;;;;14.52;100.00;91076.84;4953361;29;20140;-65
2022/04/28 08:49:50;;;;;;;4.13;3.80;;;;;;;14.39;100.00;91072.53;4952547;29;20543;-64
2022/04/28 08:52:17;;;;;;;2.63;2.42;;;;;;;14.22;100.00;91078.03;4952978;29;20039;-64
2022/04/28 08:54:44;;;;;;;2.53;2.33;;;;;;;14.03;100.00;91071.19;4953000;29;20038;-65
2022/04/28 08:57:12;;;;;;;2.47;2.28;;;;;;;14.15;100.00;91081.19;4953003;29;20488;-64
2022/04/28 08:59:38;;;;;;;3.67;3.28;;;;;;;13.96;100.00;91087.00;4952981;29;20046;-65
2022/04/28 09:02:03;;;;;;;2.22;2.05;;;;;;;13.79;100.00;91079.09;4952533;29;20122;-65
2022/04/28 09:04:30;;;;;;;2.47;2.28;;;;;;;13.60;100.00;91084.84;4952296;29;20142;-61
2022/04/28 09:06:57;;;;;;;2.65;2.45;;;;;;;13.27;100.00;91089.25;4952758;29;20217;-61
2022/04/28 09:09:24;;;;;;;3.33;3.13;;;;;;;13.69;100.00;91090.13;4952575;28;20047;-62
2022/04/28 09:11:50;;;;;;;2.97;2.67;;;;;;;13.58;100.00;91087.06;4952693;29;20031;-61
2022/04/28 09:14:22;;;;;;;2.60;2.08;;;;;;;13.85;100.00;91093.03;4952661;29;20035;-62
2022/04/28 09:16:51;;;;;;;2.78;2.60;;;;;;;13.64;100.00;91091.13;4952400;29;20106;-62
2022/04/28 09:19:22;;;;;;;4.57;4.18;;;;;;;13.64;100.00;91093.78;4952344;29;20409;-62
2022/04/28 09:21:50;;;;;;;2.80;2.35;;;;;;;13.62;100.00;91089.88;4952642;29;20098;-62
2022/04/28 09:24:16;;;;;;;1.73;1.63;;;;;;;13.58;100.00;91080.94;4952668;29;20028;-62
2022/04/28 09:26:41;;;;;;;1.23;1.13;;;;;;;13.75;100.00;91095.00;4952414;29;20089;-62
2022/04/28 09:29:13;;;;;;;2.80;2.60;;;;;;;13.71;100.00;91094.06;4951086;29;20398;-62
2022/04/28 09:31:40;;;;;;;4.15;3.83;;;;;;;13.95;100.00;91098.03;4953008;28;20166;-62
2022/04/28 09:34:12;;;;;;;2.60;2.40;;;;;;;14.13;100.00;91093.34;4956164;29;20118;-62
2022/04/28 09:36:38;;;;;;;1.77;1.67;;;;;;;13.72;100.00;91100.97;4956286;29;20112;-61
2022/04/28 09:39:09;;;;;;;2.20;1.92;;;;;;;13.59;100.00;91095.88;4956566;29;20031;-60
2022/04/28 09:44:21;;;;;;;2.13;1.92;;;;;;;13.66;100.00;91098.81;4956661;29;20046;-61
2022/04/28 09:46:48;;;;;;;1.90;1.80;;;;;;;13.86;100.00;91095.38;4956291;29;20102;-64
2022/04/28 09:49:20;;;;;;;2.10;1.95;;;;;;;13.75;100.00;91095.00;4955674;29;20038;-63
2022/04/28 09:51:46;;;;;;;2.05;1.85;;;;;;;14.07;100.00;91082.06;4956183;29;20113;-64
2022/04/28 09:54:17;;;;;;;2.35;2.22;;;;;;;14.03;100.00;91092.59;4956108;29;20453;-64
2022/04/28 09:56:44;;;;;;;6.10;3.28;;;;;;;14.86;100.00;91080.31;4955696;29;20114;-63
2022/04/28 09:59:12;;;;;;;5.03;4.30;;;;;;;15.71;100.00;91088.50;4955677;29;20035;-63
2022/04/28 10:01:39;;;;;;;2.92;2.67;;;;;;;16.86;100.00;91084.59;4955616;29;20027;-65
2022/04/28 10:04:06;;;;;;;1.88;1.73;;;;;;;16.71;100.00;91080.75;4955559;29;20114;-65
2022/04/28 10:06:36;;;;;;;5.28;2.92;;;;;;;16.73;100.00;91082.00;4955686;29;20028;-65
2022/04/28 10:09:12;;;;;;;2.15;2.05;;;;;;;18.35;91.34;91069.47;4955449;28;20039;-65
2022/04/28 10:11:38;;;;;;;1.80;1.55;;;;;;;18.21;90.50;91075.31;4955729;29;20131;-64
2022/04/28 10:14:04;;;;;;;2.70;2.33;;;;;;;18.65;87.31;91071.66;4955862;29;20040;-64
2022/04/28 10:16:30;;;;;;;3.38;2.50;;;;;;;20.06;77.54;91063.81;4955571;29;20027;-64
2022/04/28 10:19:22;;;;;;;1.52;1.42;;;;;;;19.05;79.32;91066.66;4954196;29;20027;-63
2022/04/28 10:21:55;;;;;;;1.98;1.83;;;;;;;19.24;80.70;91063.16;4953563;29;20031;-63
2022/04/28 10:32:56;;;;;;;10.38;1.80;;;;;;;16.88;100.00;91050.13;4936069;29;20130;-65
2022/04/28 10:35:41;;;;;;;1.08;1.08;;;;;;;16.48;100.00;91061.66;4936052;29;20526;-63
2022/04/28 10:38:11;;;;;;;2.20;2.00;;;;;;;16.21;100.00;91063.19;4935866;29;20028;-63
2022/04/28 10:40:39;;;;;;;2.03;1.88;;;;;;;15.51;100.00;91060.66;4935940;29;20425;-64
2022/04/28 10:43:17;;;;;;;2.40;2.20;;;;;;;15.73;100.00;91056.78;4933983;29;20462;-63
2022/04/28 10:45:44;;;;;;;2.13;1.95;;;;;;;15.84;100.00;91065.16;4935815;29;20023;-63
2022/04/28 10:48:25;;;;;;;5.35;2.60;;;;;;;15.05;100.00;91061.84;4935480;29;20071;-63
2022/04/28 10:51:22;;;;;;;2.70;2.50;;;;;;;15.38;100.00;91061.78;4935997;29;20031;-62
2022/04/28 10:54:01;;;;;;;1.88;1.77;;;;;;;15.19;100.00;91065.00;4935623;29;20083;-63
2022/04/28 10:56:54;;;;;;;7.30;4.05;;;;;;;15.32;100.00;91067.69;4935708;29;20024;-63
2022/04/28 10:59:37;;;;;;;1.63;1.52;;;;;;;15.54;100.00;91059.22;4927606;29;20142;-63
2022/04/28 11:02:26;;;;;;;2.28;2.08;;;;;;;15.41;100.00;91060.31;4935583;29;20024;-65
2022/04/28 11:05:04;;;;;;;3.53;3.22;;;;;;;15.79;100.00;91071.53;4932492;29;20048;-64
2022/04/28 11:07:31;;;;;;;2.28;2.08;;;;;;;15.48;100.00;91063.25;4935506;29;20024;-64
2022/04/28 11:10:02;;;;;;;1.70;1.60;;;;;;;15.35;100.00;91072.38;4935566;29;20442;-64
2022/04/28 11:12:34;;;;;;;1.48;1.38;;;;;;;15.34;100.00;91066.25;4934337;29;20497;-64
2022/04/28 11:15:04;;;;;;;2.17;2.05;;;;;;;15.48;100.00;91065.91;4935622;29;20111;-64
2022/04/28 11:17:31;;;;;;;2.20;2.00;;;;;;;15.67;100.00;91066.16;4935317;29;20105;-64
2022/04/28 11:20:06;;;;;;;1.77;1.45;;;;;;;15.52;100.00;91062.22;4935517;29;20410;-64
2022/04/28 11:22:32;;;;;;;2.33;2.13;;;;;;;15.27;100.00;91069.47;4935439;29;20039;-64
2022/04/28 11:24:57;;;;;;;2.42;2.22;;;;;;;15.24;100.00;91070.13;4935612;29;20020;-64
2022/04/28 11:27:25;;;;;;;2.47;2.35;;;;;;;15.86;100.00;91071.75;4935259;29;20508;-64
2022/04/28 11:29:55;;;;;;;2.13;2.03;;;;;;;15.87;100.00;91070.63;4935499;29;20498;-64
2022/04/28 11:32:21;;;;;;;1.77;1.67;;;;;;;15.71;100.00;91068.97;4935456;29;20035;-64
2022/04/28 11:34:48;;;;;;;2.40;2.20;;;;;;;16.02;100.00;91066.47;4935324;29;20106;-64
2022/04/28 11:37:18;;;;;;;1.95;1.83;;;;;;;15.96;100.00;91064.38;4935386;29;20036;-64
2022/04/28 11:39:48;;;;;;;2.58;2.20;;;;;;;15.96;100.00;91073.19;4935248;29;20528;-64
2022/04/28 11:42:16;;;;;;;4.35;1.65;;;;;;;16.28;100.00;91060.72;4935315;29;20039;-64
2022/04/28 11:44:55;;;;;;;1.27;1.25;;;;;;;16.80;100.00;91065.28;4935115;29;20032;-64
2022/04/28 11:47:22;;;;;;;6.72;4.50;;;;;;;17.19;98.78;91054.75;4935074;29;20034;-64
2022/04/28 11:49:51;;;;;;;5.25;3.40;;;;;;;17.26;95.95;91065.72;4934659;29;20494;-65
2022/04/28 11:52:21;;;;;;;2.70;2.50;;;;;;;16.38;100.00;91072.88;4934939;29;20102;-65
2022/04/28 11:54:51;;;;;;;2.78;2.28;;;;;;;16.67;100.00;91072.59;4934591;29;20114;-66
2022/04/28 11:57:18;;;;;;;1.67;1.58;;;;;;;16.73;100.00;91065.09;4934737;29;20039;-65